CLASSIFICA

ALBARETO MUD RUN 2018

GARA OCR KM 9

ALBARETO 12/05/2018

DIVISIONI:
AGONISTA     NON COMPETITIVA     CLASSIFICA:   ASSOLUTA    M     F    
CATEGORIE:   TUTTE    |   18-24(M)   |   25-29(F)   |   25-29(M)   |   30-34(F)   |   30-34(M)   |   35-39(F)   |   35-39(M)   |   40-44(F)   |   40-44(M)   |   45-49(F)   |   45-49(M)   |   50-99(M)  
FILTRO:
  Atleta      Team        Pulisci       Atleti classificati AGONISTA: 36  

Cliccare sulle colonne per cambiare ordinamento Pagina:   | 1 |
Azioni Pos. M/F Cat. P.Cat. Pett Naz Atleta Squadra Tempo Distacco in tempo Distacco in metri Min/Km braccialetti regione
1130-34(M)1107BONESI SAMUELWHITE DONKEYS OCR TEAM01:01:02 00:04:32 668 00:06:47 3 -
2218-24(M)1103BATTAGLIA DINOFARMRUN01:03:25 00:06:55 981 00:07:03 3 R
3340-44(M)1120MASALA ENRICOANIMALS OCR TEAM01:06:33 00:10:03 1.359 00:07:24 3 -
4418-24(M)2119LUSINI LORENZOI LUPI DEL CHIANTI01:07:17 00:10:47 1.442 00:07:29 3 R
5530-34(M)2128SAVAZZI FEDERICOWHITE DONKEYS OCR TEAM01:12:28 00:15:58 1.982 00:08:03 3 -
6640-44(M)2109CARLINI SIMONEINDIVIDUALE01:17:57 00:21:27 2.476 00:08:40 3 R
7140-44(F)1138FERRARI SABRINAREAL STEEL TEAM01:21:06 00:24:36 2.729 00:09:01 3 R
8230-34(F)1136LOVATO DANIELAWHITE DONKEYS OCR TEAM01:23:25 00:26:55 2.904 00:09:16 3 R
9745-49(M)1118LUPERINI EMILIANOCROLLO MA NON MOLLO01:33:18 00:36:48 3.549 00:10:22 3 R
10825-29(M)1148DONCHEV ZDRAVKOANIMALS OCR TEAM01:33:41 00:37:11 3.572 00:10:25 3 -
11325-29(F)1132BARTOLI SARANINJA CAVE01:40:12 00:43:42 3.925 00:11:08 3 R
12935-39(M)1135GHINZELLI DARIOWHITE DONKEYS OCR TEAM01:51:07 00:54:37 4.423 00:12:21 3 -
131030-34(M)3141CATELLANI MIRCOWHITE DONKEYS OCR TEAM00:57:37 00:01:07 174 00:06:24 2 -
141140-44(M)3112DADDOVERI MASSIMOLION TEAM01:05:45 00:09:15 1.266 00:07:18 2 R
151225-29(M)2114FERRARI ALESSANDROPREDATORS01:13:15 00:16:45 2.058 00:08:08 2 R
161330-34(M)4126ROCCHICCIOLI FEDERICOLION TEAM01:21:03 00:24:33 2.726 00:09:00 2 R
171435-39(M)2101ANDREOTTI GIACOMOJEK01:25:51 00:29:21 3.076 00:09:32 2 R
181540-44(M)4124PANDOLFINI CLAUDIOCROLLO MA NON MOLLO01:26:03 00:29:33 3.090 00:09:34 2 R
191630-34(M)5140GUERNIERI VALERIOWHITE DONKEYS OCR TEAM01:56:12 00:59:42 4.623 00:12:55 2 -
201745-49(M)2142ALFONSO MASSIMILIANOINDIVIDUALE02:02:08 01:05:38 4.836 00:13:34 2 -
211818-24(M)3127SACCANI DAVIDEWHITE DONKEYS OCR TEAM02:08:00 01:11:30 5.027 00:14:13 2 -
221935-39(M)3144FERRARI PAOLO3T VALTARO01:03:37 00:07:07 1.006 00:07:04 1 -
232040-44(M)5133ADAMI FRANCESCOFARMRUN01:17:36 00:21:06 2.447 00:08:37 1 R
242125-29(M)3122OTTAVIANI LUCACROSSFIT BELLARIA01:18:50 00:22:20 2.549 00:08:46 1 R
252230-34(M)6108CALDERARI GIACOMOEGO VILLAGE01:22:39 00:26:09 2.847 00:09:11 1 R
262325-29(M)4102BARTALI STEFANOBABA01:23:00 00:26:30 2.873 00:09:13 1 R
27425-29(F)2129SOLARINO GLORIARUNNER01:32:37 00:36:07 3.509 00:10:17 1 R
282450-99(M)1145GIOVANNINI PAOLOANIMALS OCR TEAM01:33:07 00:36:37 3.539 00:10:21 1 -
292530-34(M)7115FIORUCCI GIULIOINDIVIDUALE01:34:49 00:38:19 3.637 00:10:32 1 R
302618-24(M)4134GUARDIA MATTEOMATTE01:37:30 00:41:00 3.784 00:10:50 1 R
312745-49(M)3117GIAVOLUCCI GIUSEPPERACEFIT01:39:15 00:42:45 3.876 00:11:02 1 R
322830-34(M)8111COCCHI SIMONECROSSFIT CORREGGIO01:47:16 00:50:46 4.259 00:11:55 1 R
33535-39(F)1116GENIO ANNAUBIMAIOR01:49:19 00:52:49 4.348 00:12:09 1 R
342925-29(M)5137GATTI ALESSIOREAL STEEL TEAM00:56:30 00:00:00 0 00:06:17 0 -
353045-49(M)4143ERMANNI ALESSANDROINDIVIDUALE01:07:07 00:10:37 1.423 00:07:27 0 -
36645-49(F)1139DELLAPINA MANUELAINDIVIDUALE01:44:57 00:48:27 4.154 00:11:40 0 -
Righe per pagina::     TUTTE    |   30   |   50   |   100   Pagina:   | 1 |